sensor_id;sensor_type;location;lat;lon;timestamp;P1;durP1;ratioP1;P2;durP2;ratioP2
63342;SDS011;49465;57.664;39.686;2022-09-09T00:02:19;0.50;;;0.40;;
63342;SDS011;49465;57.664;39.686;2022-09-09T00:04:59;0.50;;;0.40;;
63342;SDS011;49465;57.664;39.686;2022-09-09T00:10:16;1.15;;;0.40;;
63342;SDS011;49465;57.664;39.686;2022-09-09T00:13:01;1.95;;;0.50;;
63342;SDS011;49465;57.664;39.686;2022-09-09T00:18:24;1.45;;;0.50;;
63342;SDS011;49465;57.664;39.686;2022-09-09T00:21:37;1.15;;;0.50;;
63342;SDS011;49465;57.664;39.686;2022-09-09T00:27:30;1.20;;;0.50;;
63342;SDS011;49465;57.664;39.686;2022-09-09T00:30:15;0.75;;;0.52;;
63342;SDS011;49465;57.664;39.686;2022-09-09T00:33:05;0.50;;;0.50;;
63342;SDS011;49465;57.664;39.686;2022-09-09T00:35:47;0.98;;;0.50;;
63342;SDS011;49465;57.664;39.686;2022-09-09T00:38:37;1.58;;;0.50;;
63342;SDS011;49465;57.664;39.686;2022-09-09T00:52:03;1.73;;;0.57;;
63342;SDS011;49465;57.664;39.686;2022-09-09T00:57:36;1.95;;;0.60;;
63342;SDS011;49465;57.664;39.686;2022-09-09T01:03:20;2.75;;;0.60;;
63342;SDS011;49465;57.664;39.686;2022-09-09T01:06:11;4.72;;;0.70;;
63342;SDS011;49465;57.664;39.686;2022-09-09T01:11:32;1.55;;;0.50;;
63342;SDS011;49465;57.664;39.686;2022-09-09T01:16:56;0.98;;;0.50;;
63342;SDS011;49465;57.664;39.686;2022-09-09T01:22:36;1.30;;;0.65;;
63342;SDS011;49465;57.664;39.686;2022-09-09T01:25:20;1.00;;;0.60;;
63342;SDS011;49465;57.664;39.686;2022-09-09T01:27:59;1.88;;;0.55;;
63342;SDS011;49465;57.664;39.686;2022-09-09T01:30:30;0.40;;;0.40;;
63342;SDS011;49465;57.664;39.686;2022-09-09T01:32:58;0.98;;;0.60;;
63342;SDS011;49465;57.664;39.686;2022-09-09T01:38:16;1.40;;;0.77;;
63342;SDS011;49465;57.664;39.686;2022-09-09T01:40:48;2.25;;;0.65;;
63342;SDS011;49465;57.664;39.686;2022-09-09T01:43:22;1.55;;;0.55;;
63342;SDS011;49465;57.664;39.686;2022-09-09T01:45:54;0.65;;;0.50;;
63342;SDS011;49465;57.664;39.686;2022-09-09T01:48:27;1.13;;;0.52;;
63342;SDS011;49465;57.664;39.686;2022-09-09T01:50:58;2.67;;;0.80;;
63342;SDS011;49465;57.664;39.686;2022-09-09T01:53:30;1.65;;;0.57;;
63342;SDS011;49465;57.664;39.686;2022-09-09T02:04:32;1.17;;;0.63;;
63342;SDS011;49465;57.664;39.686;2022-09-09T02:07:00;0.70;;;0.50;;
63342;SDS011;49465;57.664;39.686;2022-09-09T02:09:35;0.50;;;0.50;;
63342;SDS011;49465;57.664;39.686;2022-09-09T02:12:33;2.03;;;0.77;;
63342;SDS011;49465;57.664;39.686;2022-09-09T02:15:17;2.60;;;0.50;;
63342;SDS011;49465;57.664;39.686;2022-09-09T02:18:31;0.90;;;0.50;;
63342;SDS011;49465;57.664;39.686;2022-09-09T02:21:27;1.05;;;0.63;;
63342;SDS011;49465;57.664;39.686;2022-09-09T02:24:00;2.40;;;0.60;;
63342;SDS011;49465;57.664;39.686;2022-09-09T02:26:39;1.50;;;0.60;;
63342;SDS011;49465;57.664;39.686;2022-09-09T02:29:26;0.95;;;0.65;;
63342;SDS011;49465;57.664;39.686;2022-09-09T02:32:20;0.70;;;0.52;;
63342;SDS011;49465;57.664;39.686;2022-09-09T02:35:17;0.88;;;0.68;;
63342;SDS011;49465;57.664;39.686;2022-09-09T02:38:05;0.80;;;0.60;;
63342;SDS011;49465;57.664;39.686;2022-09-09T02:40:56;2.28;;;0.70;;
63342;SDS011;49465;57.664;39.686;2022-09-09T02:43:45;1.20;;;0.70;;
63342;SDS011;49465;57.664;39.686;2022-09-09T02:49:56;1.80;;;0.65;;
63342;SDS011;49465;57.664;39.686;2022-09-09T02:52:30;3.70;;;0.70;;
63342;SDS011;49465;57.664;39.686;2022-09-09T02:55:10;0.93;;;0.68;;
63342;SDS011;49465;57.664;39.686;2022-09-09T02:57:47;0.90;;;0.60;;
63342;SDS011;49465;57.664;39.686;2022-09-09T03:00:47;0.65;;;0.50;;
63342;SDS011;49465;57.664;39.686;2022-09-09T03:03:20;1.00;;;0.70;;
63342;SDS011;49465;57.664;39.686;2022-09-09T03:05:56;0.80;;;0.65;;
63342;SDS011;49465;57.664;39.686;2022-09-09T03:08:27;1.77;;;0.80;;
63342;SDS011;49465;57.664;39.686;2022-09-09T03:11:30;2.33;;;0.65;;
63342;SDS011;49465;57.664;39.686;2022-09-09T03:14:03;1.47;;;0.73;;
63342;SDS011;49465;57.664;39.686;2022-09-09T03:16:36;2.13;;;0.73;;
63342;SDS011;49465;57.664;39.686;2022-09-09T03:19:03;3.83;;;0.75;;
63342;SDS011;49465;57.664;39.686;2022-09-09T03:21:38;2.35;;;0.80;;
63342;SDS011;49465;57.664;39.686;2022-09-09T03:24:13;1.50;;;0.85;;
63342;SDS011;49465;57.664;39.686;2022-09-09T03:26:48;1.13;;;0.80;;
63342;SDS011;49465;57.664;39.686;2022-09-09T03:29:31;1.50;;;0.95;;
63342;SDS011;49465;57.664;39.686;2022-09-09T03:32:03;2.15;;;1.00;;
63342;SDS011;49465;57.664;39.686;2022-09-09T03:34:46;1.38;;;1.20;;
63342;SDS011;49465;57.664;39.686;2022-09-09T03:37:41;3.10;;;0.90;;
63342;SDS011;49465;57.664;39.686;2022-09-09T03:40:18;1.30;;;1.00;;
63342;SDS011;49465;57.664;39.686;2022-09-09T03:43:27;1.25;;;0.70;;
63342;SDS011;49465;57.664;39.686;2022-09-09T03:46:20;1.88;;;0.85;;
63342;SDS011;49465;57.664;39.686;2022-09-09T03:49:03;1.40;;;0.93;;
63342;SDS011;49465;57.664;39.686;2022-09-09T03:51:51;1.25;;;0.70;;
63342;SDS011;49465;57.664;39.686;2022-09-09T03:54:35;1.15;;;0.95;;
63342;SDS011;49465;57.664;39.686;2022-09-09T04:00:17;4.05;;;3.35;;
63342;SDS011;49465;57.664;39.686;2022-09-09T04:03:38;1.80;;;1.15;;
63342;SDS011;49465;57.664;39.686;2022-09-09T04:09:07;2.97;;;0.90;;
63342;SDS011;49465;57.664;39.686;2022-09-09T04:11:52;2.45;;;1.23;;
63342;SDS011;49465;57.664;39.686;2022-09-09T04:14:33;1.85;;;0.93;;
63342;SDS011;49465;57.664;39.686;2022-09-09T04:17:22;0.90;;;0.75;;
63342;SDS011;49465;57.664;39.686;2022-09-09T04:20:19;1.95;;;0.82;;
63342;SDS011;49465;57.664;39.686;2022-09-09T04:25:51;4.97;;;1.05;;
63342;SDS011;49465;57.664;39.686;2022-09-09T04:28:24;1.88;;;0.90;;
63342;SDS011;49465;57.664;39.686;2022-09-09T04:31:09;1.13;;;0.88;;
63342;SDS011;49465;57.664;39.686;2022-09-09T04:33:45;3.20;;;1.05;;
63342;SDS011;49465;57.664;39.686;2022-09-09T04:36:45;3.72;;;0.88;;
63342;SDS011;49465;57.664;39.686;2022-09-09T04:42:14;4.13;;;1.30;;
63342;SDS011;49465;57.664;39.686;2022-09-09T04:44:50;1.30;;;0.93;;
63342;SDS011;49465;57.664;39.686;2022-09-09T04:47:28;3.20;;;1.02;;
63342;SDS011;49465;57.664;39.686;2022-09-09T04:50:10;2.85;;;1.17;;
63342;SDS011;49465;57.664;39.686;2022-09-09T04:52:49;3.00;;;1.20;;
63342;SDS011;49465;57.664;39.686;2022-09-09T04:58:16;3.40;;;1.15;;
63342;SDS011;49465;57.664;39.686;2022-09-09T05:01:13;2.45;;;1.13;;
63342;SDS011;49465;57.664;39.686;2022-09-09T05:03:47;1.42;;;1.00;;
63342;SDS011;49465;57.664;39.686;2022-09-09T05:06:33;2.80;;;0.90;;
63342;SDS011;49465;57.664;39.686;2022-09-09T05:09:16;2.28;;;1.10;;
63342;SDS011;49465;57.664;39.686;2022-09-09T05:11:52;2.35;;;1.00;;
63342;SDS011;49465;57.664;39.686;2022-09-09T05:14:54;2.42;;;0.98;;
63342;SDS011;49465;57.664;39.686;2022-09-09T05:20:41;2.15;;;0.90;;
63342;SDS011;49465;57.664;39.686;2022-09-09T05:23:30;1.48;;;0.80;;
63342;SDS011;49465;57.664;39.686;2022-09-09T05:26:05;1.95;;;0.90;;
63342;SDS011;49465;57.664;39.686;2022-09-09T05:28:49;3.17;;;0.80;;
63342;SDS011;49465;57.664;39.686;2022-09-09T05:31:21;1.13;;;0.80;;
63342;SDS011;49465;57.664;39.686;2022-09-09T05:33:55;2.03;;;1.00;;
63342;SDS011;49465;57.664;39.686;2022-09-09T05:36:35;2.58;;;1.00;;
63342;SDS011;49465;57.664;39.686;2022-09-09T05:39:14;3.47;;;0.88;;
63342;SDS011;49465;57.664;39.686;2022-09-09T05:41:46;1.88;;;0.80;;
63342;SDS011;49465;57.664;39.686;2022-09-09T05:44:31;1.48;;;0.88;;
63342;SDS011;49465;57.664;39.686;2022-09-09T05:47:08;1.58;;;0.90;;
63342;SDS011;49465;57.664;39.686;2022-09-09T05:50:01;16.08;;;12.32;;
63342;SDS011;49465;57.664;39.686;2022-09-09T05:53:02;37.20;;;27.95;;
63342;SDS011;49465;57.664;39.686;2022-09-09T05:58:48;86.10;;;59.80;;
63342;SDS011;49465;57.664;39.686;2022-09-09T06:01:48;46.25;;;34.08;;
63342;SDS011;49465;57.664;39.686;2022-09-09T06:04:36;45.08;;;34.08;;
63342;SDS011;49465;57.664;39.686;2022-09-09T06:07:33;46.50;;;33.78;;
63342;SDS011;49465;57.664;39.686;2022-09-09T06:10:18;28.55;;;22.70;;
63342;SDS011;49465;57.664;39.686;2022-09-09T06:13:07;29.40;;;22.70;;
63342;SDS011;49465;57.664;39.686;2022-09-09T06:15:55;19.33;;;14.48;;
63342;SDS011;49465;57.664;39.686;2022-09-09T06:18:21;15.15;;;11.70;;
63342;SDS011;49465;57.664;39.686;2022-09-09T06:21:08;11.65;;;8.38;;
63342;SDS011;49465;57.664;39.686;2022-09-09T06:23:49;9.88;;;7.70;;
63342;SDS011;49465;57.664;39.686;2022-09-09T06:26:22;9.10;;;7.43;;
63342;SDS011;49465;57.664;39.686;2022-09-09T06:29:05;6.53;;;5.10;;
63342;SDS011;49465;57.664;39.686;2022-09-09T06:31:42;7.63;;;4.95;;
63342;SDS011;49465;57.664;39.686;2022-09-09T06:34:20;4.43;;;3.40;;
63342;SDS011;49465;57.664;39.686;2022-09-09T06:37:12;4.00;;;3.05;;
63342;SDS011;49465;57.664;39.686;2022-09-09T06:39:49;4.10;;;2.85;;
63342;SDS011;49465;57.664;39.686;2022-09-09T06:42:44;3.17;;;2.13;;
63342;SDS011;49465;57.664;39.686;2022-09-09T06:45:36;3.90;;;1.70;;
63342;SDS011;49465;57.664;39.686;2022-09-09T06:48:05;2.22;;;1.83;;
63342;SDS011;49465;57.664;39.686;2022-09-09T06:50:34;1.80;;;1.38;;
63342;SDS011;49465;57.664;39.686;2022-09-09T06:53:23;1.23;;;1.10;;
63342;SDS011;49465;57.664;39.686;2022-09-09T06:56:18;1.05;;;0.80;;
63342;SDS011;49465;57.664;39.686;2022-09-09T06:59:25;1.02;;;0.75;;
63342;SDS011;49465;57.664;39.686;2022-09-09T07:01:53;1.00;;;0.80;;
63342;SDS011;49465;57.664;39.686;2022-09-09T07:04:31;6.75;;;5.57;;
63342;SDS011;49465;57.664;39.686;2022-09-09T07:07:07;49.88;;;38.45;;
63342;SDS011;49465;57.664;39.686;2022-09-09T07:09:42;66.00;;;49.67;;
63342;SDS011;49465;57.664;39.686;2022-09-09T07:12:15;61.97;;;47.38;;
63342;SDS011;49465;57.664;39.686;2022-09-09T07:14:47;48.42;;;38.55;;
63342;SDS011;49465;57.664;39.686;2022-09-09T07:17:14;34.17;;;27.25;;
63342;SDS011;49465;57.664;39.686;2022-09-09T07:19:50;38.03;;;30.90;;
63342;SDS011;49465;57.664;39.686;2022-09-09T07:22:17;26.83;;;21.40;;
63342;SDS011;49465;57.664;39.686;2022-09-09T07:24:45;18.52;;;15.07;;
63342;SDS011;49465;57.664;39.686;2022-09-09T07:27:11;11.77;;;9.65;;
63342;SDS011;49465;57.664;39.686;2022-09-09T07:29:47;10.35;;;8.63;;
63342;SDS011;49465;57.664;39.686;2022-09-09T07:32:13;9.57;;;7.50;;
63342;SDS011;49465;57.664;39.686;2022-09-09T07:34:40;8.60;;;6.80;;
63342;SDS011;49465;57.664;39.686;2022-09-09T07:37:09;6.30;;;3.72;;
63342;SDS011;49465;57.664;39.686;2022-09-09T07:39:38;4.65;;;3.72;;
63342;SDS011;49465;57.664;39.686;2022-09-09T07:42:05;2.35;;;2.10;;
63342;SDS011;49465;57.664;39.686;2022-09-09T07:44:32;2.53;;;2.05;;
63342;SDS011;49465;57.664;39.686;2022-09-09T07:47:00;2.25;;;1.63;;
63342;SDS011;49465;57.664;39.686;2022-09-09T07:49:28;1.65;;;1.45;;
63342;SDS011;49465;57.664;39.686;2022-09-09T07:51:54;2.47;;;1.40;;
63342;SDS011;49465;57.664;39.686;2022-09-09T07:54:24;1.52;;;1.10;;
63342;SDS011;49465;57.664;39.686;2022-09-09T07:56:53;1.00;;;0.80;;
63342;SDS011;49465;57.664;39.686;2022-09-09T07:59:23;1.60;;;0.90;;
63342;SDS011;49465;57.664;39.686;2022-09-09T08:02:03;1.40;;;0.70;;
63342;SDS011;49465;57.664;39.686;2022-09-09T08:04:30;0.93;;;0.70;;
63342;SDS011;49465;57.664;39.686;2022-09-09T08:06:58;0.70;;;0.60;;
63342;SDS011;49465;57.664;39.686;2022-09-09T08:09:28;2.10;;;0.90;;
63342;SDS011;49465;57.664;39.686;2022-09-09T08:11:58;2.25;;;0.82;;
63342;SDS011;49465;57.664;39.686;2022-09-09T08:14:27;1.10;;;0.90;;
63342;SDS011;49465;57.664;39.686;2022-09-09T08:16:59;1.70;;;0.93;;
63342;SDS011;49465;57.664;39.686;2022-09-09T08:19:25;1.15;;;0.90;;
63342;SDS011;49465;57.664;39.686;2022-09-09T08:21:58;2.95;;;0.88;;
63342;SDS011;49465;57.664;39.686;2022-09-09T08:24:29;0.50;;;0.50;;
63342;SDS011;49465;57.664;39.686;2022-09-09T08:26:57;1.15;;;0.60;;
63342;SDS011;49465;57.664;39.686;2022-09-09T08:29:31;0.98;;;0.60;;
63342;SDS011;49465;57.664;39.686;2022-09-09T08:32:03;1.40;;;0.52;;
63342;SDS011;49465;57.664;39.686;2022-09-09T08:34:32;1.85;;;0.57;;
63342;SDS011;49465;57.664;39.686;2022-09-09T08:37:03;1.17;;;0.50;;
63342;SDS011;49465;57.664;39.686;2022-09-09T08:39:39;1.17;;;0.40;;
63342;SDS011;49465;57.664;39.686;2022-09-09T08:51:08;1.17;;;0.45;;
63342;SDS011;49465;57.664;39.686;2022-09-09T08:53:40;0.50;;;0.30;;
63342;SDS011;49465;57.664;39.686;2022-09-09T08:56:14;0.57;;;0.32;;
63342;SDS011;49465;57.664;39.686;2022-09-09T08:58:50;0.55;;;0.35;;
63342;SDS011;49465;57.664;39.686;2022-09-09T09:12:01;3.40;;;1.40;;
63342;SDS011;49465;57.664;39.686;2022-09-09T09:14:42;1.33;;;0.90;;
63342;SDS011;49465;57.664;39.686;2022-09-09T09:17:20;0.40;;;0.40;;
63342;SDS011;49465;57.664;39.686;2022-09-09T09:19:48;1.65;;;0.60;;
63342;SDS011;49465;57.664;39.686;2022-09-09T09:22:21;1.08;;;0.35;;
63342;SDS011;49465;57.664;39.686;2022-09-09T09:25:08;0.75;;;0.43;;
63342;SDS011;49465;57.664;39.686;2022-09-09T09:28:03;1.48;;;0.52;;
63342;SDS011;49465;57.664;39.686;2022-09-09T09:30:38;0.55;;;0.40;;
63342;SDS011;49465;57.664;39.686;2022-09-09T09:33:16;0.82;;;0.45;;
63342;SDS011;49465;57.664;39.686;2022-09-09T09:35:43;1.45;;;0.40;;
63342;SDS011;49465;57.664;39.686;2022-09-09T09:38:31;0.40;;;0.40;;
63342;SDS011;49465;57.664;39.686;2022-09-09T09:41:16;1.58;;;0.60;;
63342;SDS011;49465;57.664;39.686;2022-09-09T09:43:54;0.70;;;0.30;;
63342;SDS011;49465;57.664;39.686;2022-09-09T09:46:21;0.60;;;0.30;;
63342;SDS011;49465;57.664;39.686;2022-09-09T09:48:56;0.75;;;0.40;;
63342;SDS011;49465;57.664;39.686;2022-09-09T09:51:28;0.40;;;0.38;;
63342;SDS011;49465;57.664;39.686;2022-09-09T10:02:40;0.40;;;0.35;;
63342;SDS011;49465;57.664;39.686;2022-09-09T10:07:43;0.25;;;0.25;;
63342;SDS011;49465;57.664;39.686;2022-09-09T10:11:16;0.45;;;0.30;;
63342;SDS011;49465;57.664;39.686;2022-09-09T10:13:36;1.67;;;0.30;;
63342;SDS011;49465;57.664;39.686;2022-09-09T10:19:13;0.68;;;0.30;;
63342;SDS011;49465;57.664;39.686;2022-09-09T10:30:18;0.77;;;0.32;;
63342;SDS011;49465;57.664;39.686;2022-09-09T10:38:39;1.23;;;0.40;;
63342;SDS011;49465;57.664;39.686;2022-09-09T10:49:59;1.30;;;0.40;;
63342;SDS011;49465;57.664;39.686;2022-09-09T10:56:04;0.63;;;0.30;;
63342;SDS011;49465;57.664;39.686;2022-09-09T11:04:02;0.30;;;0.30;;
63342;SDS011;49465;57.664;39.686;2022-09-09T11:06:47;1.55;;;0.40;;
63342;SDS011;49465;57.664;39.686;2022-09-09T11:09:30;0.52;;;0.30;;
63342;SDS011;49465;57.664;39.686;2022-09-09T11:12:06;0.40;;;0.30;;
63342;SDS011;49465;57.664;39.686;2022-09-09T11:15:01;0.75;;;0.40;;
63342;SDS011;49465;57.664;39.686;2022-09-09T11:17:46;0.73;;;0.40;;
63342;SDS011;49465;57.664;39.686;2022-09-09T11:20:27;0.75;;;0.30;;
63342;SDS011;49465;57.664;39.686;2022-09-09T11:23:23;1.27;;;0.40;;
63342;SDS011;49465;57.664;39.686;2022-09-09T11:26:00;1.20;;;0.30;;
63342;SDS011;49465;57.664;39.686;2022-09-09T11:34:09;3.33;;;0.50;;
63342;SDS011;49465;57.664;39.686;2022-09-09T11:37:06;0.32;;;0.32;;
63342;SDS011;49465;57.664;39.686;2022-09-09T11:42:39;0.57;;;0.50;;
63342;SDS011;49465;57.664;39.686;2022-09-09T11:48:03;0.60;;;0.40;;
63342;SDS011;49465;57.664;39.686;2022-09-09T11:50:35;0.30;;;0.30;;
63342;SDS011;49465;57.664;39.686;2022-09-09T11:53:16;0.40;;;0.40;;
63342;SDS011;49465;57.664;39.686;2022-09-09T11:56:00;0.47;;;0.40;;
63342;SDS011;49465;57.664;39.686;2022-09-09T11:59:16;0.80;;;0.30;;
63342;SDS011;49465;57.664;39.686;2022-09-09T12:01:55;1.38;;;0.30;;
63342;SDS011;49465;57.664;39.686;2022-09-09T12:12:32;0.95;;;0.50;;
63342;SDS011;49465;57.664;39.686;2022-09-09T12:17:43;0.82;;;0.52;;
63342;SDS011;49465;57.664;39.686;2022-09-09T12:34:36;1.10;;;0.68;;
63342;SDS011;49465;57.664;39.686;2022-09-09T12:40:02;0.40;;;0.40;;
63342;SDS011;49465;57.664;39.686;2022-09-09T12:42:30;0.75;;;0.40;;
63342;SDS011;49465;57.664;39.686;2022-09-09T12:45:01;0.40;;;0.30;;
63342;SDS011;49465;57.664;39.686;2022-09-09T12:47:48;1.25;;;0.50;;
63342;SDS011;49465;57.664;39.686;2022-09-09T12:50:20;1.77;;;0.70;;
63342;SDS011;49465;57.664;39.686;2022-09-09T12:53:09;1.00;;;0.80;;
63342;SDS011;49465;57.664;39.686;2022-09-09T12:55:48;2.38;;;1.00;;
63342;SDS011;49465;57.664;39.686;2022-09-09T12:58:21;0.80;;;0.80;;
63342;SDS011;49465;57.664;39.686;2022-09-09T13:00:49;2.67;;;1.00;;
63342;SDS011;49465;57.664;39.686;2022-09-09T13:03:24;1.88;;;1.00;;
63342;SDS011;49465;57.664;39.686;2022-09-09T13:06:12;1.60;;;1.30;;
63342;SDS011;49465;57.664;39.686;2022-09-09T13:08:45;2.47;;;1.75;;
63342;SDS011;49465;57.664;39.686;2022-09-09T13:11:22;2.50;;;1.50;;
63342;SDS011;49465;57.664;39.686;2022-09-09T13:17:22;1.90;;;1.60;;
63342;SDS011;49465;57.664;39.686;2022-09-09T13:20:03;4.15;;;2.00;;
63342;SDS011;49465;57.664;39.686;2022-09-09T13:22:33;2.10;;;1.70;;
63342;SDS011;49465;57.664;39.686;2022-09-09T13:27:38;3.92;;;1.80;;
63342;SDS011;49465;57.664;39.686;2022-09-09T13:36:01;2.58;;;1.40;;
63342;SDS011;49465;57.664;39.686;2022-09-09T13:38:37;1.40;;;1.30;;
63342;SDS011;49465;57.664;39.686;2022-09-09T13:43:59;2.00;;;1.20;;
63342;SDS011;49465;57.664;39.686;2022-09-09T13:51:45;3.50;;;1.20;;
63342;SDS011;49465;57.664;39.686;2022-09-09T13:54:20;1.38;;;1.10;;
63342;SDS011;49465;57.664;39.686;2022-09-09T13:56:47;1.13;;;1.02;;
63342;SDS011;49465;57.664;39.686;2022-09-09T13:59:15;1.20;;;1.00;;
63342;SDS011;49465;57.664;39.686;2022-09-09T14:01:50;1.27;;;0.88;;
63342;SDS011;49465;57.664;39.686;2022-09-09T14:04:17;1.08;;;0.82;;
63342;SDS011;49465;57.664;39.686;2022-09-09T14:06:50;1.15;;;0.70;;
63342;SDS011;49465;57.664;39.686;2022-09-09T14:09:21;1.02;;;0.70;;
63342;SDS011;49465;57.664;39.686;2022-09-09T14:11:51;3.13;;;0.80;;
63342;SDS011;49465;57.664;39.686;2022-09-09T14:14:23;1.08;;;0.52;;
63342;SDS011;49465;57.664;39.686;2022-09-09T14:16:51;1.80;;;0.70;;
63342;SDS011;49465;57.664;39.686;2022-09-09T14:19:17;0.85;;;0.60;;
63342;SDS011;49465;57.664;39.686;2022-09-09T14:21:44;1.02;;;0.60;;
63342;SDS011;49465;57.664;39.686;2022-09-09T14:24:10;1.30;;;0.60;;
63342;SDS011;49465;57.664;39.686;2022-09-09T14:26:37;0.60;;;0.60;;
63342;SDS011;49465;57.664;39.686;2022-09-09T14:29:04;1.75;;;0.60;;
63342;SDS011;49465;57.664;39.686;2022-09-09T14:31:35;1.60;;;0.70;;
63342;SDS011;49465;57.664;39.686;2022-09-09T14:34:02;1.45;;;0.70;;
63342;SDS011;49465;57.664;39.686;2022-09-09T14:36:28;1.35;;;0.70;;
63342;SDS011;49465;57.664;39.686;2022-09-09T14:38:55;2.50;;;0.80;;
63342;SDS011;49465;57.664;39.686;2022-09-09T14:41:24;2.22;;;0.70;;
63342;SDS011;49465;57.664;39.686;2022-09-09T14:43:51;1.20;;;0.90;;
63342;SDS011;49465;57.664;39.686;2022-09-09T14:46:19;1.25;;;0.88;;
63342;SDS011;49465;57.664;39.686;2022-09-09T14:48:49;1.08;;;0.90;;
63342;SDS011;49465;57.664;39.686;2022-09-09T14:51:20;1.70;;;1.00;;
63342;SDS011;49465;57.664;39.686;2022-09-09T14:53:52;1.30;;;1.15;;
63342;SDS011;49465;57.664;39.686;2022-09-09T14:56:27;1.45;;;1.10;;
63342;SDS011;49465;57.664;39.686;2022-09-09T14:59:06;2.28;;;1.20;;
63342;SDS011;49465;57.664;39.686;2022-09-09T15:01:35;3.65;;;1.63;;
63342;SDS011;49465;57.664;39.686;2022-09-09T15:04:14;2.97;;;1.30;;
63342;SDS011;49465;57.664;39.686;2022-09-09T15:06:41;2.10;;;1.25;;
63342;SDS011;49465;57.664;39.686;2022-09-09T15:09:16;2.47;;;1.48;;
63342;SDS011;49465;57.664;39.686;2022-09-09T15:11:46;3.10;;;1.40;;
63342;SDS011;49465;57.664;39.686;2022-09-09T15:14:15;3.60;;;1.83;;
63342;SDS011;49465;57.664;39.686;2022-09-09T15:16:59;3.38;;;1.60;;
63342;SDS011;49465;57.664;39.686;2022-09-09T15:19:36;2.45;;;1.67;;
63342;SDS011;49465;57.664;39.686;2022-09-09T15:22:03;2.20;;;2.00;;
63342;SDS011;49465;57.664;39.686;2022-09-09T15:24:34;2.10;;;1.90;;
63342;SDS011;49465;57.664;39.686;2022-09-09T15:27:00;2.55;;;2.15;;
63342;SDS011;49465;57.664;39.686;2022-09-09T15:29:29;3.33;;;2.05;;
63342;SDS011;49465;57.664;39.686;2022-09-09T15:31:56;2.75;;;2.42;;
63342;SDS011;49465;57.664;39.686;2022-09-09T15:34:22;3.22;;;2.50;;
63342;SDS011;49465;57.664;39.686;2022-09-09T15:37:00;3.17;;;2.45;;
63342;SDS011;49465;57.664;39.686;2022-09-09T15:39:29;3.17;;;2.60;;
63342;SDS011;49465;57.664;39.686;2022-09-09T15:41:56;2.90;;;2.55;;
63342;SDS011;49465;57.664;39.686;2022-09-09T15:44:23;2.97;;;2.47;;
63342;SDS011;49465;57.664;39.686;2022-09-09T15:46:51;3.03;;;2.58;;
63342;SDS011;49465;57.664;39.686;2022-09-09T15:49:24;3.35;;;2.70;;
63342;SDS011;49465;57.664;39.686;2022-09-09T15:52:09;3.28;;;2.63;;
63342;SDS011;49465;57.664;39.686;2022-09-09T15:54:39;3.30;;;2.67;;
63342;SDS011;49465;57.664;39.686;2022-09-09T15:57:06;3.00;;;2.60;;
63342;SDS011;49465;57.664;39.686;2022-09-09T15:59:41;4.25;;;2.75;;
63342;SDS011;49465;57.664;39.686;2022-09-09T16:02:17;3.90;;;2.90;;
63342;SDS011;49465;57.664;39.686;2022-09-09T16:04:46;4.40;;;3.00;;
63342;SDS011;49465;57.664;39.686;2022-09-09T16:07:33;2.85;;;2.60;;
63342;SDS011;49465;57.664;39.686;2022-09-09T16:10:00;11.93;;;3.17;;
63342;SDS011;49465;57.664;39.686;2022-09-09T16:12:30;6.57;;;3.10;;
63342;SDS011;49465;57.664;39.686;2022-09-09T16:15:02;5.90;;;3.20;;
63342;SDS011;49465;57.664;39.686;2022-09-09T16:17:32;20.95;;;14.50;;
63342;SDS011;49465;57.664;39.686;2022-09-09T16:20:03;22.95;;;17.65;;
63342;SDS011;49465;57.664;39.686;2022-09-09T16:22:33;21.63;;;19.33;;
63342;SDS011;49465;57.664;39.686;2022-09-09T16:25:05;10.20;;;8.45;;
63342;SDS011;49465;57.664;39.686;2022-09-09T16:27:32;10.23;;;8.10;;
63342;SDS011;49465;57.664;39.686;2022-09-09T16:30:02;10.45;;;8.98;;
63342;SDS011;49465;57.664;39.686;2022-09-09T16:32:34;8.73;;;6.82;;
63342;SDS011;49465;57.664;39.686;2022-09-09T16:35:09;7.93;;;5.55;;
63342;SDS011;49465;57.664;39.686;2022-09-09T16:37:36;6.45;;;4.72;;
63342;SDS011;49465;57.664;39.686;2022-09-09T16:40:11;6.95;;;4.00;;
63342;SDS011;49465;57.664;39.686;2022-09-09T16:42:42;7.18;;;4.53;;
63342;SDS011;49465;57.664;39.686;2022-09-09T16:45:14;6.25;;;3.83;;
63342;SDS011;49465;57.664;39.686;2022-09-09T16:47:42;11.40;;;5.72;;
63342;SDS011;49465;57.664;39.686;2022-09-09T16:50:09;12.48;;;9.85;;
63342;SDS011;49465;57.664;39.686;2022-09-09T16:52:47;15.20;;;13.25;;
63342;SDS011;49465;57.664;39.686;2022-09-09T16:55:13;14.80;;;10.95;;
63342;SDS011;49465;57.664;39.686;2022-09-09T17:00:24;5.97;;;4.70;;
63342;SDS011;49465;57.664;39.686;2022-09-09T17:02:53;6.18;;;4.95;;
63342;SDS011;49465;57.664;39.686;2022-09-09T17:05:23;7.05;;;5.82;;
63342;SDS011;49465;57.664;39.686;2022-09-09T17:07:53;6.20;;;5.60;;
63342;SDS011;49465;57.664;39.686;2022-09-09T17:10:25;6.15;;;5.22;;
63342;SDS011;49465;57.664;39.686;2022-09-09T17:12:57;6.25;;;4.90;;
63342;SDS011;49465;57.664;39.686;2022-09-09T17:15:46;7.80;;;4.93;;
63342;SDS011;49465;57.664;39.686;2022-09-09T17:18:21;7.80;;;5.05;;
63342;SDS011;49465;57.664;39.686;2022-09-09T17:21:21;5.20;;;4.05;;
63342;SDS011;49465;57.664;39.686;2022-09-09T17:23:55;4.90;;;3.83;;
63342;SDS011;49465;57.664;39.686;2022-09-09T17:26:29;6.95;;;3.85;;
63342;SDS011;49465;57.664;39.686;2022-09-09T17:29:02;6.95;;;5.00;;
63342;SDS011;49465;57.664;39.686;2022-09-09T17:31:38;5.43;;;3.75;;
63342;SDS011;49465;57.664;39.686;2022-09-09T17:34:08;4.60;;;3.70;;
63342;SDS011;49465;57.664;39.686;2022-09-09T17:36:40;5.38;;;3.90;;
63342;SDS011;49465;57.664;39.686;2022-09-09T17:39:06;4.38;;;3.80;;
63342;SDS011;49465;57.664;39.686;2022-09-09T17:41:34;5.72;;;3.25;;
63342;SDS011;49465;57.664;39.686;2022-09-09T17:44:07;4.55;;;3.28;;
63342;SDS011;49465;57.664;39.686;2022-09-09T17:46:42;7.55;;;3.47;;
63342;SDS011;49465;57.664;39.686;2022-09-09T17:49:22;4.38;;;3.45;;
63342;SDS011;49465;57.664;39.686;2022-09-09T17:51:53;3.88;;;3.47;;
63342;SDS011;49465;57.664;39.686;2022-09-09T17:54:25;5.22;;;3.63;;
63342;SDS011;49465;57.664;39.686;2022-09-09T17:56:52;5.30;;;3.50;;
63342;SDS011;49465;57.664;39.686;2022-09-09T17:59:23;4.80;;;3.72;;
63342;SDS011;49465;57.664;39.686;2022-09-09T18:01:50;4.13;;;3.55;;
63342;SDS011;49465;57.664;39.686;2022-09-09T18:04:17;5.18;;;3.67;;
63342;SDS011;49465;57.664;39.686;2022-09-09T18:06:45;5.40;;;3.25;;
63342;SDS011;49465;57.664;39.686;2022-09-09T18:09:14;6.93;;;3.30;;
63342;SDS011;49465;57.664;39.686;2022-09-09T18:11:45;5.88;;;4.40;;
63342;SDS011;49465;57.664;39.686;2022-09-09T18:14:15;4.78;;;3.67;;
63342;SDS011;49465;57.664;39.686;2022-09-09T18:16:44;5.68;;;3.85;;
63342;SDS011;49465;57.664;39.686;2022-09-09T18:19:16;6.20;;;4.25;;
63342;SDS011;49465;57.664;39.686;2022-09-09T18:21:44;4.70;;;3.85;;
63342;SDS011;49465;57.664;39.686;2022-09-09T18:24:11;5.22;;;4.30;;
63342;SDS011;49465;57.664;39.686;2022-09-09T18:26:39;5.78;;;4.55;;
63342;SDS011;49465;57.664;39.686;2022-09-09T18:29:11;7.45;;;4.32;;
63342;SDS011;49465;57.664;39.686;2022-09-09T18:31:40;6.68;;;4.80;;
63342;SDS011;49465;57.664;39.686;2022-09-09T18:34:07;5.30;;;4.53;;
63342;SDS011;49465;57.664;39.686;2022-09-09T18:36:37;9.57;;;4.97;;
63342;SDS011;49465;57.664;39.686;2022-09-09T18:39:19;5.90;;;4.78;;
63342;SDS011;49465;57.664;39.686;2022-09-09T18:41:50;6.95;;;4.90;;
63342;SDS011;49465;57.664;39.686;2022-09-09T18:44:21;5.80;;;4.75;;
63342;SDS011;49465;57.664;39.686;2022-09-09T18:47:02;5.40;;;4.60;;